sensor_id;sensor_type;location;lat;lon;timestamp;P1;durP1;ratioP1;P2;durP2;ratioP2
77010;SDS011;65945;53.148;17.956;2024-03-08T00:00:34;20.80;;;8.20;;
77010;SDS011;65945;53.148;17.956;2024-03-08T00:03:20;20.30;;;7.30;;
77010;SDS011;65945;53.148;17.956;2024-03-08T00:05:47;19.50;;;8.70;;
77010;SDS011;65945;53.148;17.956;2024-03-08T00:08:14;16.60;;;8.00;;
77010;SDS011;65945;53.148;17.956;2024-03-08T00:10:41;20.00;;;8.50;;
77010;SDS011;65945;53.148;17.956;2024-03-08T00:13:08;18.30;;;8.30;;
77010;SDS011;65945;53.148;17.956;2024-03-08T00:15:34;17.80;;;7.90;;
77010;SDS011;65945;53.148;17.956;2024-03-08T00:18:02;20.20;;;8.00;;
77010;SDS011;65945;53.148;17.956;2024-03-08T00:20:28;22.10;;;8.10;;
77010;SDS011;65945;53.148;17.956;2024-03-08T00:22:55;16.60;;;7.30;;
77010;SDS011;65945;53.148;17.956;2024-03-08T00:25:24;17.40;;;8.10;;
77010;SDS011;65945;53.148;17.956;2024-03-08T00:27:51;18.50;;;8.10;;
77010;SDS011;65945;53.148;17.956;2024-03-08T00:30:17;23.60;;;9.30;;
77010;SDS011;65945;53.148;17.956;2024-03-08T00:32:44;14.70;;;7.00;;
77010;SDS011;65945;53.148;17.956;2024-03-08T00:35:10;17.50;;;7.50;;
77010;SDS011;65945;53.148;17.956;2024-03-08T00:37:38;18.90;;;7.20;;
77010;SDS011;65945;53.148;17.956;2024-03-08T00:40:05;18.50;;;8.40;;
77010;SDS011;65945;53.148;17.956;2024-03-08T00:42:33;17.90;;;7.60;;
77010;SDS011;65945;53.148;17.956;2024-03-08T00:44:59;20.30;;;8.40;;
77010;SDS011;65945;53.148;17.956;2024-03-08T00:47:26;19.50;;;8.10;;
77010;SDS011;65945;53.148;17.956;2024-03-08T00:49:53;16.00;;;6.80;;
77010;SDS011;65945;53.148;17.956;2024-03-08T00:52:22;17.70;;;8.30;;
77010;SDS011;65945;53.148;17.956;2024-03-08T00:54:50;27.60;;;10.50;;
77010;SDS011;65945;53.148;17.956;2024-03-08T00:57:17;44.60;;;13.70;;
77010;SDS011;65945;53.148;17.956;2024-03-08T00:59:43;32.00;;;11.60;;
77010;SDS011;65945;53.148;17.956;2024-03-08T01:02:10;20.60;;;9.00;;
77010;SDS011;65945;53.148;17.956;2024-03-08T01:04:37;21.20;;;8.60;;
77010;SDS011;65945;53.148;17.956;2024-03-08T01:07:03;19.50;;;8.70;;
77010;SDS011;65945;53.148;17.956;2024-03-08T01:09:30;20.70;;;8.30;;
77010;SDS011;65945;53.148;17.956;2024-03-08T01:11:56;21.80;;;8.50;;
77010;SDS011;65945;53.148;17.956;2024-03-08T01:14:23;21.20;;;8.20;;
77010;SDS011;65945;53.148;17.956;2024-03-08T01:16:55;19.50;;;8.00;;
77010;SDS011;65945;53.148;17.956;2024-03-08T01:19:22;28.50;;;10.30;;
77010;SDS011;65945;53.148;17.956;2024-03-08T01:21:50;31.90;;;11.90;;
77010;SDS011;65945;53.148;17.956;2024-03-08T01:24:17;27.90;;;11.10;;
77010;SDS011;65945;53.148;17.956;2024-03-08T01:26:44;35.50;;;13.90;;
77010;SDS011;65945;53.148;17.956;2024-03-08T01:29:11;27.80;;;10.40;;
77010;SDS011;65945;53.148;17.956;2024-03-08T01:31:37;26.30;;;10.80;;
77010;SDS011;65945;53.148;17.956;2024-03-08T01:34:04;35.80;;;13.00;;
77010;SDS011;65945;53.148;17.956;2024-03-08T01:36:31;37.20;;;14.40;;
77010;SDS011;65945;53.148;17.956;2024-03-08T01:38:57;46.60;;;18.60;;
77010;SDS011;65945;53.148;17.956;2024-03-08T01:41:24;35.30;;;16.10;;
77010;SDS011;65945;53.148;17.956;2024-03-08T01:43:51;27.80;;;11.70;;
77010;SDS011;65945;53.148;17.956;2024-03-08T01:46:19;28.70;;;12.50;;
77010;SDS011;65945;53.148;17.956;2024-03-08T01:48:48;32.10;;;14.00;;
77010;SDS011;65945;53.148;17.956;2024-03-08T01:51:17;22.00;;;10.60;;
77010;SDS011;65945;53.148;17.956;2024-03-08T01:53:44;25.60;;;12.90;;
77010;SDS011;65945;53.148;17.956;2024-03-08T01:56:13;22.20;;;9.00;;
77010;SDS011;65945;53.148;17.956;2024-03-08T01:58:41;23.70;;;9.10;;
77010;SDS011;65945;53.148;17.956;2024-03-08T02:01:13;19.30;;;8.70;;
77010;SDS011;65945;53.148;17.956;2024-03-08T02:03:45;14.80;;;6.80;;
77010;SDS011;65945;53.148;17.956;2024-03-08T02:06:12;18.50;;;8.00;;
77010;SDS011;65945;53.148;17.956;2024-03-08T02:08:41;18.40;;;8.10;;
77010;SDS011;65945;53.148;17.956;2024-03-08T02:11:10;14.80;;;7.10;;
77010;SDS011;65945;53.148;17.956;2024-03-08T02:13:37;17.20;;;6.00;;
77010;SDS011;65945;53.148;17.956;2024-03-08T02:16:04;19.50;;;7.90;;
77010;SDS011;65945;53.148;17.956;2024-03-08T02:18:34;17.20;;;7.60;;
77010;SDS011;65945;53.148;17.956;2024-03-08T02:21:01;17.50;;;7.00;;
77010;SDS011;65945;53.148;17.956;2024-03-08T02:23:29;20.50;;;7.90;;
77010;SDS011;65945;53.148;17.956;2024-03-08T02:25:56;18.30;;;8.60;;
77010;SDS011;65945;53.148;17.956;2024-03-08T02:28:23;18.40;;;7.90;;
77010;SDS011;65945;53.148;17.956;2024-03-08T02:30:54;19.60;;;7.30;;
77010;SDS011;65945;53.148;17.956;2024-03-08T02:33:22;16.90;;;7.80;;
77010;SDS011;65945;53.148;17.956;2024-03-08T02:35:49;20.10;;;7.80;;
77010;SDS011;65945;53.148;17.956;2024-03-08T02:38:18;16.50;;;7.90;;
77010;SDS011;65945;53.148;17.956;2024-03-08T02:40:46;24.30;;;9.60;;
77010;SDS011;65945;53.148;17.956;2024-03-08T02:43:14;20.80;;;8.70;;
77010;SDS011;65945;53.148;17.956;2024-03-08T02:45:42;19.50;;;8.70;;
77010;SDS011;65945;53.148;17.956;2024-03-08T02:48:08;25.20;;;10.70;;
77010;SDS011;65945;53.148;17.956;2024-03-08T02:50:35;23.10;;;10.80;;
77010;SDS011;65945;53.148;17.956;2024-03-08T02:53:03;22.00;;;9.90;;
77010;SDS011;65945;53.148;17.956;2024-03-08T02:55:30;23.20;;;9.40;;
77010;SDS011;65945;53.148;17.956;2024-03-08T02:57:57;23.60;;;9.90;;
77010;SDS011;65945;53.148;17.956;2024-03-08T03:00:23;17.70;;;9.10;;
77010;SDS011;65945;53.148;17.956;2024-03-08T03:02:50;25.40;;;10.20;;
77010;SDS011;65945;53.148;17.956;2024-03-08T03:05:20;19.40;;;8.70;;
77010;SDS011;65945;53.148;17.956;2024-03-08T03:07:47;17.90;;;8.20;;
77010;SDS011;65945;53.148;17.956;2024-03-08T03:10:16;20.70;;;9.40;;
77010;SDS011;65945;53.148;17.956;2024-03-08T03:12:44;18.90;;;7.60;;
77010;SDS011;65945;53.148;17.956;2024-03-08T03:15:12;23.70;;;9.30;;
77010;SDS011;65945;53.148;17.956;2024-03-08T03:17:39;17.00;;;7.70;;
77010;SDS011;65945;53.148;17.956;2024-03-08T03:20:09;21.00;;;10.20;;
77010;SDS011;65945;53.148;17.956;2024-03-08T03:22:39;24.20;;;11.40;;
77010;SDS011;65945;53.148;17.956;2024-03-08T03:25:13;27.60;;;11.50;;
77010;SDS011;65945;53.148;17.956;2024-03-08T03:27:40;23.10;;;10.80;;
77010;SDS011;65945;53.148;17.956;2024-03-08T03:30:08;24.90;;;10.20;;
77010;SDS011;65945;53.148;17.956;2024-03-08T03:32:50;18.60;;;9.00;;
77010;SDS011;65945;53.148;17.956;2024-03-08T03:35:21;19.90;;;8.20;;
77010;SDS011;65945;53.148;17.956;2024-03-08T03:37:48;22.30;;;9.30;;
77010;SDS011;65945;53.148;17.956;2024-03-08T03:40:28;21.00;;;9.10;;
77010;SDS011;65945;53.148;17.956;2024-03-08T03:42:55;24.30;;;10.30;;
77010;SDS011;65945;53.148;17.956;2024-03-08T03:45:23;21.30;;;10.40;;
77010;SDS011;65945;53.148;17.956;2024-03-08T03:47:50;24.70;;;11.40;;
77010;SDS011;65945;53.148;17.956;2024-03-08T03:50:16;27.10;;;11.30;;
77010;SDS011;65945;53.148;17.956;2024-03-08T03:52:45;22.10;;;10.20;;
77010;SDS011;65945;53.148;17.956;2024-03-08T03:55:13;24.80;;;11.30;;
77010;SDS011;65945;53.148;17.956;2024-03-08T03:57:40;25.40;;;9.80;;
77010;SDS011;65945;53.148;17.956;2024-03-08T04:00:07;26.70;;;10.00;;
77010;SDS011;65945;53.148;17.956;2024-03-08T04:02:41;21.10;;;10.10;;
77010;SDS011;65945;53.148;17.956;2024-03-08T04:05:08;22.40;;;9.70;;
77010;SDS011;65945;53.148;17.956;2024-03-08T04:07:36;24.90;;;11.10;;
77010;SDS011;65945;53.148;17.956;2024-03-08T04:10:05;23.80;;;10.90;;
77010;SDS011;65945;53.148;17.956;2024-03-08T04:12:33;20.40;;;9.70;;
77010;SDS011;65945;53.148;17.956;2024-03-08T04:15:00;21.00;;;8.90;;
77010;SDS011;65945;53.148;17.956;2024-03-08T04:17:27;24.80;;;11.00;;
77010;SDS011;65945;53.148;17.956;2024-03-08T04:19:54;23.30;;;9.80;;
77010;SDS011;65945;53.148;17.956;2024-03-08T04:22:21;22.90;;;10.50;;
77010;SDS011;65945;53.148;17.956;2024-03-08T04:24:47;25.10;;;9.80;;
77010;SDS011;65945;53.148;17.956;2024-03-08T04:27:14;24.80;;;9.50;;
77010;SDS011;65945;53.148;17.956;2024-03-08T04:29:41;21.10;;;9.70;;
77010;SDS011;65945;53.148;17.956;2024-03-08T04:32:08;19.70;;;9.20;;
77010;SDS011;65945;53.148;17.956;2024-03-08T04:34:35;22.10;;;8.80;;
77010;SDS011;65945;53.148;17.956;2024-03-08T04:37:02;22.00;;;9.10;;
77010;SDS011;65945;53.148;17.956;2024-03-08T04:39:31;21.10;;;9.30;;
77010;SDS011;65945;53.148;17.956;2024-03-08T04:41:59;20.50;;;8.60;;
77010;SDS011;65945;53.148;17.956;2024-03-08T04:44:30;20.60;;;8.10;;
77010;SDS011;65945;53.148;17.956;2024-03-08T04:46:57;22.10;;;9.30;;
77010;SDS011;65945;53.148;17.956;2024-03-08T04:49:24;24.10;;;9.70;;
77010;SDS011;65945;53.148;17.956;2024-03-08T04:51:51;18.90;;;8.60;;
77010;SDS011;65945;53.148;17.956;2024-03-08T04:54:17;18.70;;;8.00;;
77010;SDS011;65945;53.148;17.956;2024-03-08T04:56:45;21.90;;;9.20;;
77010;SDS011;65945;53.148;17.956;2024-03-08T04:59:13;20.00;;;8.50;;
77010;SDS011;65945;53.148;17.956;2024-03-08T05:01:40;24.40;;;9.30;;
77010;SDS011;65945;53.148;17.956;2024-03-08T05:04:06;21.10;;;9.20;;
77010;SDS011;65945;53.148;17.956;2024-03-08T05:06:33;23.80;;;9.60;;
77010;SDS011;65945;53.148;17.956;2024-03-08T05:08:59;23.90;;;8.90;;
77010;SDS011;65945;53.148;17.956;2024-03-08T05:11:26;22.70;;;9.40;;
77010;SDS011;65945;53.148;17.956;2024-03-08T05:13:53;20.80;;;8.70;;
77010;SDS011;65945;53.148;17.956;2024-03-08T05:16:20;23.30;;;9.70;;
77010;SDS011;65945;53.148;17.956;2024-03-08T05:18:48;23.50;;;9.60;;
77010;SDS011;65945;53.148;17.956;2024-03-08T05:21:15;21.90;;;9.30;;
77010;SDS011;65945;53.148;17.956;2024-03-08T05:23:46;29.60;;;10.00;;
77010;SDS011;65945;53.148;17.956;2024-03-08T05:26:13;20.70;;;8.60;;
77010;SDS011;65945;53.148;17.956;2024-03-08T05:28:40;24.40;;;10.30;;
77010;SDS011;65945;53.148;17.956;2024-03-08T05:31:07;22.90;;;9.50;;
77010;SDS011;65945;53.148;17.956;2024-03-08T05:33:34;25.70;;;10.20;;
77010;SDS011;65945;53.148;17.956;2024-03-08T05:36:01;24.20;;;10.90;;
77010;SDS011;65945;53.148;17.956;2024-03-08T05:38:29;21.00;;;8.60;;
77010;SDS011;65945;53.148;17.956;2024-03-08T05:40:55;31.00;;;10.00;;
77010;SDS011;65945;53.148;17.956;2024-03-08T05:43:22;25.40;;;10.30;;
77010;SDS011;65945;53.148;17.956;2024-03-08T05:45:49;25.60;;;10.30;;
77010;SDS011;65945;53.148;17.956;2024-03-08T05:48:15;25.10;;;10.70;;
77010;SDS011;65945;53.148;17.956;2024-03-08T05:50:44;23.60;;;9.50;;
77010;SDS011;65945;53.148;17.956;2024-03-08T05:53:11;22.40;;;9.10;;
77010;SDS011;65945;53.148;17.956;2024-03-08T05:55:39;20.40;;;9.20;;
77010;SDS011;65945;53.148;17.956;2024-03-08T05:58:06;22.60;;;9.50;;
77010;SDS011;65945;53.148;17.956;2024-03-08T06:00:34;21.80;;;9.20;;
77010;SDS011;65945;53.148;17.956;2024-03-08T06:03:02;23.10;;;10.00;;
77010;SDS011;65945;53.148;17.956;2024-03-08T06:05:29;20.90;;;8.70;;
77010;SDS011;65945;53.148;17.956;2024-03-08T06:07:56;26.10;;;9.20;;
77010;SDS011;65945;53.148;17.956;2024-03-08T06:10:22;20.20;;;9.60;;
77010;SDS011;65945;53.148;17.956;2024-03-08T06:12:49;21.30;;;9.90;;
77010;SDS011;65945;53.148;17.956;2024-03-08T06:15:17;26.70;;;10.00;;
77010;SDS011;65945;53.148;17.956;2024-03-08T06:17:47;22.40;;;10.30;;
77010;SDS011;65945;53.148;17.956;2024-03-08T06:20:14;32.20;;;13.10;;
77010;SDS011;65945;53.148;17.956;2024-03-08T06:22:41;26.90;;;11.80;;
77010;SDS011;65945;53.148;17.956;2024-03-08T06:25:08;45.80;;;19.10;;
77010;SDS011;65945;53.148;17.956;2024-03-08T06:27:37;52.70;;;20.10;;
77010;SDS011;65945;53.148;17.956;2024-03-08T06:30:04;50.90;;;23.20;;
77010;SDS011;65945;53.148;17.956;2024-03-08T06:32:31;42.40;;;20.80;;
77010;SDS011;65945;53.148;17.956;2024-03-08T06:35:01;37.80;;;16.00;;
77010;SDS011;65945;53.148;17.956;2024-03-08T06:37:32;31.30;;;15.60;;
77010;SDS011;65945;53.148;17.956;2024-03-08T06:40:00;41.90;;;16.20;;
77010;SDS011;65945;53.148;17.956;2024-03-08T06:42:28;37.60;;;15.10;;
77010;SDS011;65945;53.148;17.956;2024-03-08T06:44:55;32.20;;;11.90;;
77010;SDS011;65945;53.148;17.956;2024-03-08T06:47:26;43.50;;;19.10;;
77010;SDS011;65945;53.148;17.956;2024-03-08T06:49:52;42.00;;;17.30;;
77010;SDS011;65945;53.148;17.956;2024-03-08T06:52:19;36.90;;;15.90;;
77010;SDS011;65945;53.148;17.956;2024-03-08T06:54:46;36.40;;;14.70;;
77010;SDS011;65945;53.148;17.956;2024-03-08T06:57:12;36.30;;;14.30;;
77010;SDS011;65945;53.148;17.956;2024-03-08T06:59:40;38.40;;;16.10;;
77010;SDS011;65945;53.148;17.956;2024-03-08T07:02:06;36.20;;;15.50;;
77010;SDS011;65945;53.148;17.956;2024-03-08T07:04:35;35.90;;;15.80;;
77010;SDS011;65945;53.148;17.956;2024-03-08T07:07:04;36.40;;;14.60;;
77010;SDS011;65945;53.148;17.956;2024-03-08T07:09:31;31.90;;;13.70;;
77010;SDS011;65945;53.148;17.956;2024-03-08T07:11:58;39.50;;;16.40;;
77010;SDS011;65945;53.148;17.956;2024-03-08T07:14:25;42.20;;;18.00;;
77010;SDS011;65945;53.148;17.956;2024-03-08T07:16:52;34.40;;;14.70;;
77010;SDS011;65945;53.148;17.956;2024-03-08T07:19:19;38.70;;;16.70;;
77010;SDS011;65945;53.148;17.956;2024-03-08T07:21:45;40.70;;;16.40;;
77010;SDS011;65945;53.148;17.956;2024-03-08T07:24:13;42.80;;;18.50;;
77010;SDS011;65945;53.148;17.956;2024-03-08T07:26:43;51.00;;;19.20;;
77010;SDS011;65945;53.148;17.956;2024-03-08T07:29:10;37.90;;;18.30;;
77010;SDS011;65945;53.148;17.956;2024-03-08T07:31:36;36.80;;;16.60;;
77010;SDS011;65945;53.148;17.956;2024-03-08T07:34:03;46.60;;;17.80;;
77010;SDS011;65945;53.148;17.956;2024-03-08T07:36:34;38.20;;;17.50;;
77010;SDS011;65945;53.148;17.956;2024-03-08T07:39:03;38.10;;;18.30;;
77010;SDS011;65945;53.148;17.956;2024-03-08T07:41:32;44.30;;;16.20;;
77010;SDS011;65945;53.148;17.956;2024-03-08T07:44:00;41.40;;;18.20;;
77010;SDS011;65945;53.148;17.956;2024-03-08T07:46:30;32.20;;;15.40;;
77010;SDS011;65945;53.148;17.956;2024-03-08T07:48:56;44.00;;;19.70;;
77010;SDS011;65945;53.148;17.956;2024-03-08T07:51:23;40.00;;;19.70;;
77010;SDS011;65945;53.148;17.956;2024-03-08T07:53:49;39.20;;;17.10;;
77010;SDS011;65945;53.148;17.956;2024-03-08T07:56:16;47.30;;;21.70;;
77010;SDS011;65945;53.148;17.956;2024-03-08T07:58:44;40.00;;;18.40;;
77010;SDS011;65945;53.148;17.956;2024-03-08T08:01:17;43.10;;;19.00;;
77010;SDS011;65945;53.148;17.956;2024-03-08T08:03:44;40.20;;;18.40;;
77010;SDS011;65945;53.148;17.956;2024-03-08T08:06:11;40.90;;;17.90;;
77010;SDS011;65945;53.148;17.956;2024-03-08T08:08:42;42.40;;;19.60;;
77010;SDS011;65945;53.148;17.956;2024-03-08T08:11:09;41.60;;;18.60;;
77010;SDS011;65945;53.148;17.956;2024-03-08T08:13:37;37.80;;;17.90;;
77010;SDS011;65945;53.148;17.956;2024-03-08T08:16:05;42.80;;;19.20;;
77010;SDS011;65945;53.148;17.956;2024-03-08T08:18:33;43.50;;;19.70;;
77010;SDS011;65945;53.148;17.956;2024-03-08T08:20:59;45.30;;;21.30;;
77010;SDS011;65945;53.148;17.956;2024-03-08T08:23:29;44.90;;;21.10;;
77010;SDS011;65945;53.148;17.956;2024-03-08T08:25:56;46.50;;;23.50;;
77010;SDS011;65945;53.148;17.956;2024-03-08T08:28:23;49.20;;;22.40;;
77010;SDS011;65945;53.148;17.956;2024-03-08T08:30:50;43.20;;;20.70;;
77010;SDS011;65945;53.148;17.956;2024-03-08T08:33:17;42.40;;;19.70;;
77010;SDS011;65945;53.148;17.956;2024-03-08T08:35:44;45.70;;;22.10;;
77010;SDS011;65945;53.148;17.956;2024-03-08T08:38:10;48.80;;;21.70;;
77010;SDS011;65945;53.148;17.956;2024-03-08T08:40:38;48.30;;;22.60;;
77010;SDS011;65945;53.148;17.956;2024-03-08T08:43:04;43.90;;;20.50;;
77010;SDS011;65945;53.148;17.956;2024-03-08T08:45:31;41.50;;;19.80;;
77010;SDS011;65945;53.148;17.956;2024-03-08T08:47:57;47.20;;;21.50;;
77010;SDS011;65945;53.148;17.956;2024-03-08T08:50:26;46.00;;;21.20;;
77010;SDS011;65945;53.148;17.956;2024-03-08T08:52:53;47.40;;;20.70;;
77010;SDS011;65945;53.148;17.956;2024-03-08T08:55:19;49.90;;;20.90;;
77010;SDS011;65945;53.148;17.956;2024-03-08T08:57:52;40.70;;;21.30;;
77010;SDS011;65945;53.148;17.956;2024-03-08T09:00:19;44.50;;;18.90;;
77010;SDS011;65945;53.148;17.956;2024-03-08T09:02:46;52.70;;;22.80;;
77010;SDS011;65945;53.148;17.956;2024-03-08T09:05:14;47.40;;;21.30;;
77010;SDS011;65945;53.148;17.956;2024-03-08T09:07:43;44.20;;;20.70;;
77010;SDS011;65945;53.148;17.956;2024-03-08T09:10:13;50.10;;;21.80;;
77010;SDS011;65945;53.148;17.956;2024-03-08T09:12:40;51.80;;;23.10;;
77010;SDS011;65945;53.148;17.956;2024-03-08T09:15:07;49.40;;;19.70;;
77010;SDS011;65945;53.148;17.956;2024-03-08T09:17:37;47.10;;;19.90;;
77010;SDS011;65945;53.148;17.956;2024-03-08T09:20:07;47.10;;;21.40;;
77010;SDS011;65945;53.148;17.956;2024-03-08T09:22:35;43.60;;;18.60;;
77010;SDS011;65945;53.148;17.956;2024-03-08T09:25:02;43.70;;;19.80;;
77010;SDS011;65945;53.148;17.956;2024-03-08T09:27:31;51.60;;;20.90;;
77010;SDS011;65945;53.148;17.956;2024-03-08T09:29:58;60.40;;;23.00;;
77010;SDS011;65945;53.148;17.956;2024-03-08T09:32:25;57.10;;;23.90;;
77010;SDS011;65945;53.148;17.956;2024-03-08T09:34:52;50.30;;;24.20;;
77010;SDS011;65945;53.148;17.956;2024-03-08T09:37:19;59.60;;;25.10;;
77010;SDS011;65945;53.148;17.956;2024-03-08T09:39:46;50.60;;;22.80;;
77010;SDS011;65945;53.148;17.956;2024-03-08T09:42:12;41.00;;;20.10;;
77010;SDS011;65945;53.148;17.956;2024-03-08T09:44:47;36.00;;;17.40;;
77010;SDS011;65945;53.148;17.956;2024-03-08T09:47:14;46.10;;;21.20;;
77010;SDS011;65945;53.148;17.956;2024-03-08T09:49:42;35.70;;;15.90;;
77010;SDS011;65945;53.148;17.956;2024-03-08T09:52:09;42.60;;;15.90;;
77010;SDS011;65945;53.148;17.956;2024-03-08T09:54:38;30.70;;;14.20;;
77010;SDS011;65945;53.148;17.956;2024-03-08T09:57:06;33.40;;;16.80;;
77010;SDS011;65945;53.148;17.956;2024-03-08T09:59:35;33.70;;;14.90;;
77010;SDS011;65945;53.148;17.956;2024-03-08T10:02:02;21.80;;;10.90;;
77010;SDS011;65945;53.148;17.956;2024-03-08T10:04:29;25.10;;;11.80;;
77010;SDS011;65945;53.148;17.956;2024-03-08T10:07:00;24.20;;;12.60;;
77010;SDS011;65945;53.148;17.956;2024-03-08T10:09:27;26.50;;;11.60;;
77010;SDS011;65945;53.148;17.956;2024-03-08T10:11:57;27.30;;;12.30;;
77010;SDS011;65945;53.148;17.956;2024-03-08T10:14:26;29.30;;;12.50;;
77010;SDS011;65945;53.148;17.956;2024-03-08T10:16:54;27.80;;;12.60;;
77010;SDS011;65945;53.148;17.956;2024-03-08T10:19:26;17.30;;;9.50;;
77010;SDS011;65945;53.148;17.956;2024-03-08T10:21:56;23.30;;;10.50;;
77010;SDS011;65945;53.148;17.956;2024-03-08T10:24:24;24.50;;;11.30;;
77010;SDS011;65945;53.148;17.956;2024-03-08T10:26:52;21.90;;;10.70;;
77010;SDS011;65945;53.148;17.956;2024-03-08T10:29:26;25.20;;;11.20;;
77010;SDS011;65945;53.148;17.956;2024-03-08T10:31:53;23.00;;;11.20;;
77010;SDS011;65945;53.148;17.956;2024-03-08T10:34:22;15.60;;;8.30;;
77010;SDS011;65945;53.148;17.956;2024-03-08T10:36:50;21.20;;;10.40;;
77010;SDS011;65945;53.148;17.956;2024-03-08T10:39:22;23.20;;;9.90;;
77010;SDS011;65945;53.148;17.956;2024-03-08T10:41:55;22.00;;;10.70;;
77010;SDS011;65945;53.148;17.956;2024-03-08T10:47:03;20.00;;;10.90;;
77010;SDS011;65945;53.148;17.956;2024-03-08T10:49:47;27.30;;;10.40;;
77010;SDS011;65945;53.148;17.956;2024-03-08T10:52:18;19.70;;;9.10;;
77010;SDS011;65945;53.148;17.956;2024-03-08T10:54:45;19.10;;;9.10;;
77010;SDS011;65945;53.148;17.956;2024-03-08T10:57:14;18.00;;;9.20;;
77010;SDS011;65945;53.148;17.956;2024-03-08T10:59:45;20.40;;;8.80;;
77010;SDS011;65945;53.148;17.956;2024-03-08T11:02:16;15.00;;;7.10;;
77010;SDS011;65945;53.148;17.956;2024-03-08T11:04:48;17.90;;;8.10;;
77010;SDS011;65945;53.148;17.956;2024-03-08T11:07:16;16.40;;;6.70;;
77010;SDS011;65945;53.148;17.956;2024-03-08T11:09:47;16.60;;;6.50;;
77010;SDS011;65945;53.148;17.956;2024-03-08T11:12:21;15.50;;;8.00;;
77010;SDS011;65945;53.148;17.956;2024-03-08T11:14:52;19.00;;;8.30;;
77010;SDS011;65945;53.148;17.956;2024-03-08T11:17:20;15.80;;;7.70;;
77010;SDS011;65945;53.148;17.956;2024-03-08T11:19:51;17.40;;;8.10;;
77010;SDS011;65945;53.148;17.956;2024-03-08T11:22:23;19.20;;;7.60;;
77010;SDS011;65945;53.148;17.956;2024-03-08T11:24:53;12.90;;;6.70;;
77010;SDS011;65945;53.148;17.956;2024-03-08T11:27:29;14.90;;;7.20;;
77010;SDS011;65945;53.148;17.956;2024-03-08T11:30:01;19.10;;;8.90;;
77010;SDS011;65945;53.148;17.956;2024-03-08T11:32:45;17.90;;;7.70;;
77010;SDS011;65945;53.148;17.956;2024-03-08T11:35:19;15.40;;;7.60;;
77010;SDS011;65945;53.148;17.956;2024-03-08T11:37:46;17.70;;;8.70;;
77010;SDS011;65945;53.148;17.956;2024-03-08T11:40:14;17.90;;;8.60;;
77010;SDS011;65945;53.148;17.956;2024-03-08T11:42:45;16.80;;;7.60;;
77010;SDS011;65945;53.148;17.956;2024-03-08T11:45:14;13.10;;;6.70;;
77010;SDS011;65945;53.148;17.956;2024-03-08T11:47:43;14.00;;;6.00;;
77010;SDS011;65945;53.148;17.956;2024-03-08T11:50:14;13.60;;;6.70;;
77010;SDS011;65945;53.148;17.956;2024-03-08T11:52:43;16.80;;;7.20;;
77010;SDS011;65945;53.148;17.956;2024-03-08T11:55:10;14.00;;;6.90;;
77010;SDS011;65945;53.148;17.956;2024-03-08T11:57:38;15.70;;;6.80;;
77010;SDS011;65945;53.148;17.956;2024-03-08T12:00:05;13.70;;;6.60;;
77010;SDS011;65945;53.148;17.956;2024-03-08T12:02:34;15.70;;;7.10;;
77010;SDS011;65945;53.148;17.956;2024-03-08T12:05:07;15.60;;;6.10;;
77010;SDS011;65945;53.148;17.956;2024-03-08T12:07:35;11.60;;;6.20;;
77010;SDS011;65945;53.148;17.956;2024-03-08T12:10:15;14.60;;;6.80;;
77010;SDS011;65945;53.148;17.956;2024-03-08T12:12:52;12.20;;;6.80;;
77010;SDS011;65945;53.148;17.956;2024-03-08T12:15:21;18.50;;;8.10;;
77010;SDS011;65945;53.148;17.956;2024-03-08T12:17:50;17.70;;;8.10;;
77010;SDS011;65945;53.148;17.956;2024-03-08T12:20:22;17.90;;;9.50;;
77010;SDS011;65945;53.148;17.956;2024-03-08T12:22:52;17.80;;;8.50;;
77010;SDS011;65945;53.148;17.956;2024-03-08T12:25:20;15.50;;;8.00;;
77010;SDS011;65945;53.148;17.956;2024-03-08T12:27:47;20.00;;;8.70;;
77010;SDS011;65945;53.148;17.956;2024-03-08T12:30:17;16.20;;;8.00;;
77010;SDS011;65945;53.148;17.956;2024-03-08T12:32:48;18.00;;;7.70;;
77010;SDS011;65945;53.148;17.956;2024-03-08T12:35:15;15.60;;;6.80;;
77010;SDS011;65945;53.148;17.956;2024-03-08T12:37:42;10.40;;;4.90;;
77010;SDS011;65945;53.148;17.956;2024-03-08T12:40:09;15.70;;;6.70;;
77010;SDS011;65945;53.148;17.956;2024-03-08T12:42:36;12.30;;;6.00;;
77010;SDS011;65945;53.148;17.956;2024-03-08T12:45:05;10.60;;;6.00;;
77010;SDS011;65945;53.148;17.956;2024-03-08T12:47:36;16.00;;;7.40;;
77010;SDS011;65945;53.148;17.956;2024-03-08T12:50:03;13.60;;;6.60;;
77010;SDS011;65945;53.148;17.956;2024-03-08T12:52:30;13.80;;;7.00;;
77010;SDS011;65945;53.148;17.956;2024-03-08T12:54:56;17.00;;;7.00;;
77010;SDS011;65945;53.148;17.956;2024-03-08T12:57:23;15.90;;;7.50;;
77010;SDS011;65945;53.148;17.956;2024-03-08T12:59:53;14.20;;;7.30;;
77010;SDS011;65945;53.148;17.956;2024-03-08T13:02:20;16.80;;;7.60;;
77010;SDS011;65945;53.148;17.956;2024-03-08T13:04:49;12.70;;;6.90;;
77010;SDS011;65945;53.148;17.956;2024-03-08T13:07:23;13.90;;;6.60;;
77010;SDS011;65945;53.148;17.956;2024-03-08T13:09:52;16.00;;;7.30;;
77010;SDS011;65945;53.148;17.956;2024-03-08T13:12:21;13.50;;;7.20;;
77010;SDS011;65945;53.148;17.956;2024-03-08T13:14:48;12.70;;;7.80;;
77010;SDS011;65945;53.148;17.956;2024-03-08T13:17:14;15.60;;;8.00;;
77010;SDS011;65945;53.148;17.956;2024-03-08T13:19:42;16.20;;;7.90;;
77010;SDS011;65945;53.148;17.956;2024-03-08T13:22:08;32.40;;;8.80;;
77010;SDS011;65945;53.148;17.956;2024-03-08T13:24:42;18.10;;;7.60;;
77010;SDS011;65945;53.148;17.956;2024-03-08T13:27:11;13.10;;;7.20;;
77010;SDS011;65945;53.148;17.956;2024-03-08T13:29:46;20.50;;;9.60;;
77010;SDS011;65945;53.148;17.956;2024-03-08T13:32:17;21.00;;;10.50;;
77010;SDS011;65945;53.148;17.956;2024-03-08T13:34:43;38.70;;;21.80;;
77010;SDS011;65945;53.148;17.956;2024-03-08T13:37:20;24.40;;;14.00;;
77010;SDS011;65945;53.148;17.956;2024-03-08T13:39:47;16.90;;;9.00;;
77010;SDS011;65945;53.148;17.956;2024-03-08T13:42:14;17.30;;;8.40;;
77010;SDS011;65945;53.148;17.956;2024-03-08T13:44:43;19.50;;;8.70;;
77010;SDS011;65945;53.148;17.956;2024-03-08T13:47:10;15.80;;;8.20;;
77010;SDS011;65945;53.148;17.956;2024-03-08T13:49:38;15.90;;;8.00;;
77010;SDS011;65945;53.148;17.956;2024-03-08T13:52:05;18.30;;;8.00;;
77010;SDS011;65945;53.148;17.956;2024-03-08T13:54:32;15.80;;;8.90;;
77010;SDS011;65945;53.148;17.956;2024-03-08T13:56:59;14.30;;;8.20;;
77010;SDS011;65945;53.148;17.956;2024-03-08T13:59:26;16.60;;;8.80;;
77010;SDS011;65945;53.148;17.956;2024-03-08T14:01:56;20.30;;;9.20;;
77010;SDS011;65945;53.148;17.956;2024-03-08T14:04:24;20.70;;;8.70;;
77010;SDS011;65945;53.148;17.956;2024-03-08T14:06:51;17.50;;;8.90;;
77010;SDS011;65945;53.148;17.956;2024-03-08T14:09:23;14.50;;;7.50;;
77010;SDS011;65945;53.148;17.956;2024-03-08T14:11:51;16.80;;;8.20;;
77010;SDS011;65945;53.148;17.956;2024-03-08T14:14:21;19.50;;;8.40;;
77010;SDS011;65945;53.148;17.956;2024-03-08T14:16:51;17.30;;;8.50;;
77010;SDS011;65945;53.148;17.956;2024-03-08T14:19:19;14.70;;;8.00;;
77010;SDS011;65945;53.148;17.956;2024-03-08T14:21:46;16.30;;;8.40;;
77010;SDS011;65945;53.148;17.956;2024-03-08T14:24:15;20.00;;;9.00;;